.
WxDataArchive / Data Records for 2015-04-12
2015-04-11 April 2015 2015-04-13

Data Records for Sunday, 12 April 2015

Time	Temp	Chill	HIndex	Humid	Dewpt	 Wind 	HiWind	WindDir	Rain 	Barom
-----	----	-----	------	-----	-----	------	------	-------	-----	-----
00:00	42.3	42.3	42.3	73	34.3	0	0	---	0.00	30.204 
00:05	42.2	42.2	42.2	74	34.5	0	0	---	0.00	30.204 
00:10	42.1	42.1	42.1	74	34.4	0	0	---	0.00	30.204 
00:15	41.9	41.9	41.9	74	34.2	0	0	---	0.00	30.206 
00:20	41.9	41.9	41.9	74	34.2	0	0	---	0.00	30.206 
00:25	41.6	41.6	41.6	74	33.9	0	0	---	0.00	30.206 
00:30	41.5	41.5	41.5	74	33.8	0	0	---	0.00	30.208 
00:35	41.2	41.2	41.2	75	33.9	0	0	---	0.00	30.208 
00:40	41.1	41.1	41.1	75	33.8	0	0	---	0.00	30.208 
00:45	40.9	40.9	40.9	76	33.9	0	0	---	0.00	30.209 
00:50	40.8	40.8	40.8	76	33.8	0	0	---	0.00	30.209 
00:55	40.6	40.6	40.6	77	34.0	0	0	---	0.00	30.209 
01:00	40.5	40.5	40.5	77	33.9	0	0	---	0.00	30.210 
01:05	40.3	40.3	40.3	77	33.7	0	0	---	0.00	30.210 
01:10	40.2	40.2	40.2	78	33.9	0	0	---	0.00	30.210 
01:15	40.1	40.1	40.1	79	34.1	0	0	---	0.00	30.204 
01:20	40.1	40.1	40.1	79	34.1	0	0	---	0.00	30.204 
01:25	39.9	39.9	39.9	80	34.2	0	0	---	0.00	30.204 
01:30	39.9	39.9	39.9	81	34.6	0	0	---	0.00	30.204 
01:35	39.9	39.9	39.9	82	34.9	0	0	---	0.00	30.204 
01:40	39.9	39.9	39.9	83	35.2	0	0	---	0.00	30.204 
01:45	39.9	39.9	39.9	83	35.2	0	0	---	0.00	30.206 
01:50	39.8	39.8	39.8	84	35.4	0	0	---	0.00	30.206 
01:55	39.6	39.6	39.6	84	35.2	0	0	---	0.00	30.206 
02:00	39.5	39.5	39.5	84	35.1	0	0	---	0.00	30.199 
02:05	39.3	39.3	39.3	85	35.2	0	0	---	0.00	30.199 
02:10	39.2	39.2	39.2	85	35.1	0	0	---	0.00	30.199 
02:15	39.1	39.1	39.1	85	35.0	0	0	---	0.00	30.200 
02:20	38.9	38.9	38.9	86	35.1	0	0	---	0.00	30.200 
02:25	38.8	38.8	38.8	86	35.0	0	0	---	0.00	30.200 
02:30	38.5	38.5	38.5	86	34.7	0	0	---	0.00	30.198 
02:35	38.3	38.3	38.3	87	34.8	0	0	---	0.00	30.198 
02:40	38.3	38.3	38.3	87	34.8	0	0	---	0.00	30.198 
02:45	38.2	38.2	38.2	87	34.7	0	0	---	0.00	30.196 
02:50	38.0	38.0	38.0	87	34.5	0	0	---	0.00	30.196 
02:55	37.9	37.9	37.9	87	34.4	0	0	---	0.00	30.196 
03:00	37.8	37.8	37.8	88	34.6	0	0	---	0.00	30.190 
03:05	37.8	37.8	37.8	88	34.6	0	0	---	0.00	30.190 
03:10	37.6	37.6	37.6	88	34.4	0	0	---	0.00	30.190 
03:15	37.5	37.5	37.5	88	34.3	0	0	---	0.00	30.192 
03:20	37.5	37.5	37.5	88	34.3	0	0	---	0.00	30.192 
03:25	37.3	37.3	37.3	88	34.1	0	0	---	0.00	30.192 
03:30	37.2	37.2	37.2	88	34.0	0	0	---	0.00	30.194 
03:35	37.2	37.2	37.2	88	34.0	0	0	---	0.00	30.194 
03:40	37.0	37.0	37.0	88	33.8	0	0	---	0.00	30.194 
03:45	36.9	36.9	36.9	88	33.7	0	0	---	0.00	30.196 
03:50	36.8	36.8	36.8	88	33.6	0	0	---	0.00	30.196 
03:55	36.6	36.6	36.6	88	33.4	0	0	---	0.00	30.196 
04:00	36.5	36.5	36.5	88	33.3	0	0	---	0.00	30.196 
04:05	36.3	36.3	36.3	88	33.1	0	0	---	0.00	30.196 
04:10	36.2	36.2	36.2	88	33.0	0	0	---	0.00	30.196 
04:15	36.0	36.0	36.0	88	32.8	0	0	---	0.00	30.193 
04:20	35.9	35.9	35.9	88	32.7	0	0	---	0.00	30.193 
04:25	35.8	35.8	35.8	88	32.6	0	0	---	0.00	30.193 
04:30	35.8	35.8	35.8	89	32.9	0	0	---	0.00	30.193 
04:35	35.8	35.8	35.8	89	32.9	0	0	---	0.00	30.193 
04:40	35.6	35.6	35.6	89	32.7	0	0	---	0.00	30.193 
04:45	35.5	35.5	35.5	89	32.6	0	0	---	0.00	30.194 
04:50	35.5	35.5	35.5	89	32.6	0	0	---	0.00	30.194 
04:55	35.3	35.3	35.3	89	32.4	0	0	---	0.00	30.194 
05:00	35.2	35.2	35.2	89	32.3	0	0	---	0.00	30.191 
05:05	35.2	35.2	35.2	89	32.3	0	0	---	0.00	30.191 
05:10	35.2	35.2	35.2	89	32.3	0	0	---	0.00	30.191 
05:15	35.0	35.0	35.0	89	32.1	0	0	---	0.00	30.194 
05:20	35.0	35.0	35.0	89	32.1	0	0	---	0.00	30.194 
05:25	34.9	34.9	34.9	89	32.0	0	0	---	0.00	30.194 
05:30	34.9	34.9	34.9	90	32.3	0	0	---	0.00	30.195 
05:35	34.7	34.7	34.7	90	32.1	0	0	---	0.00	30.195 
05:40	34.7	34.7	34.7	90	32.1	0	0	---	0.00	30.195 
05:45	34.7	34.7	34.7	90	32.1	0	0	---	0.00	30.199 
05:50	34.7	34.7	34.7	90	32.1	0	0	---	0.00	30.199 
05:55	34.7	34.7	34.7	90	32.1	0	0	---	0.00	30.199 
06:00	34.6	34.6	34.6	90	32.0	0	0	---	0.00	30.200 
06:05	34.4	34.4	34.4	90	31.8	0	0	---	0.00	30.200 
06:10	34.3	34.3	34.3	90	31.7	0	0	---	0.00	30.200 
06:15	34.3	34.3	34.3	90	31.7	0	0	---	0.00	30.204 
06:20	34.3	34.3	34.3	90	31.7	0	0	---	0.00	30.204 
06:25	34.3	34.3	34.3	91	32.0	0	0	---	0.00	30.204 
06:30	34.3	34.3	34.3	91	32.0	0	0	---	0.00	30.207 
06:35	34.1	34.1	34.1	91	31.8	0	0	---	0.00	30.207 
06:40	34.1	34.1	34.1	91	31.8	0	0	---	0.00	30.207 
06:45	34.1	34.1	34.1	91	31.8	0	0	---	0.00	30.213 
06:50	34.1	34.1	34.1	91	31.8	0	0	---	0.00	30.213 
06:55	34.1	34.1	34.1	91	31.8	0	0	---	0.00	30.213 
07:00	34.1	34.1	34.1	91	31.8	0	0	---	0.00	30.217 
07:05	34.1	34.1	34.1	91	31.8	0	0	---	0.00	30.217 
07:10	34.1	34.1	34.1	91	31.8	0	0	---	0.00	30.217 
07:15	34.3	34.3	34.3	91	32.0	0	0	---	0.00	30.219 
07:20	34.4	34.4	34.4	91	32.0	0	0	---	0.00	30.219 
07:25	34.4	34.4	34.4	92	32.3	0	0	---	0.00	30.219 
07:30	34.6	34.6	34.6	92	32.5	0	0	---	0.00	30.221 
07:35	34.9	34.9	34.9	92	32.8	0	0	---	0.00	30.221 
07:40	35.0	35.0	35.0	92	32.9	0	0	---	0.00	30.221 
07:45	35.5	35.5	35.5	92	33.4	0	0	---	0.00	30.222 
07:50	36.0	36.0	36.0	93	34.2	0	0	---	0.00	30.222 
07:55	36.6	36.6	36.6	93	34.8	0	0	---	0.00	30.222 
08:00	37.2	37.2	37.2	93	35.4	0	0	---	0.00	30.222 
08:05	37.6	37.6	37.6	93	35.8	0	0	---	0.00	30.222 
08:10	37.9	37.9	37.9	93	36.1	0	0	---	0.00	30.222 
08:15	38.3	38.3	38.3	93	36.5	0	0	---	0.00	30.232 
08:20	38.8	38.8	38.8	93	37.0	0	0	---	0.00	30.232 
08:25	39.2	39.2	39.2	92	37.1	0	0	---	0.00	30.232 
08:30	39.8	39.8	39.8	90	37.1	0	1	315	0.00	30.234 
08:35	40.5	40.5	40.5	88	37.2	0	1	---	0.00	30.234 
08:40	41.5	41.5	41.5	87	37.9	0	0	---	0.00	30.234 
08:45	42.6	42.6	42.6	83	37.8	0	2	315	0.00	30.234 
08:50	43.6	43.6	43.6	81	38.2	0	1	315	0.00	30.234 
08:55	44.5	44.5	44.5	78	38.1	0	2	315	0.00	30.234 
09:00	45.1	45.1	45.1	77	38.3	0	2	315	0.00	30.232 
09:05	45.7	45.7	45.7	76	38.6	0	1	315	0.00	30.232 
09:10	46.4	46.4	46.4	73	38.2	0	1	315	0.00	30.232 
09:15	47.3	47.3	47.3	72	38.7	0	1	315	0.00	30.235 
09:20	48.0	48.0	48.0	70	38.7	0	1	315	0.00	30.235 
09:25	48.9	48.9	48.9	69	39.2	0	2	315	0.00	30.235 
09:30	49.6	49.6	49.6	68	39.5	0	2	315	0.00	30.231 
09:35	50.4	50.4	50.4	65	39.1	0	2	315	0.00	30.231 
09:40	51.1	51.1	51.1	65	39.7	0	2	315	0.00	30.231 
09:45	51.9	51.9	51.9	62	39.3	0	3	315	0.00	30.226 
09:50	52.8	52.8	52.8	60	39.3	0	3	315	0.00	30.226 
09:55	53.3	53.3	53.3	52	36.1	2	4	90	0.00	30.226 
10:00	54.1	54.1	54.1	49	35.4	2	6	90	0.00	30.222 
10:05	54.8	54.8	54.8	49	36.0	1	3	90	0.00	30.222 
10:10	55.6	55.6	55.6	50	37.3	1	4	90	0.00	30.222 
10:15	56.5	56.5	56.5	49	37.6	1	4	90	0.00	30.223 
10:20	57.2	57.2	57.2	50	38.7	1	4	90	0.00	30.223 
10:25	57.8	57.8	57.8	45	36.6	2	4	90	0.00	30.223 
10:30	58.1	58.1	58.1	45	36.9	1	4	68	0.00	30.224 
10:35	58.6	58.6	58.6	45	37.3	1	4	68	0.00	30.224 
10:40	58.9	58.9	58.9	41	35.2	2	6	68	0.00	30.224 
10:45	59.2	59.2	59.2	43	36.7	2	6	90	0.00	30.216 
10:50	59.3	59.3	59.3	44	37.4	2	5	90	0.00	30.216 
10:55	59.6	59.6	59.6	44	37.7	1	5	68	0.00	30.216 
11:00	59.8	59.8	59.8	43	37.3	2	6	68	0.00	30.211 
11:05	60.2	60.2	60.2	44	38.2	1	3	112	0.00	30.211 
11:10	60.5	60.5	60.5	39	35.4	2	6	90	0.00	30.211 
11:15	60.7	60.7	60.7	39	35.6	2	6	90	0.00	30.214 
11:20	60.5	60.5	60.5	39	35.4	3	11	90	0.00	30.214 
11:25	60.5	60.5	60.5	38	34.8	2	6	112	0.00	30.214 
11:30	60.9	60.9	60.9	39	35.8	2	5	112	0.00	30.209 
11:35	61.2	61.2	61.2	36	34.0	2	5	90	0.00	30.209 
11:40	61.5	61.5	61.5	41	37.6	1	4	90	0.00	30.209 
11:45	62.0	62.0	62.0	38	36.1	1	5	90	0.00	30.202 
11:50	62.1	62.1	62.1	41	38.1	1	5	338	0.00	30.202 
11:55	62.0	62.0	62.0	38	36.1	1	4	68	0.00	30.202 
12:00	62.0	62.0	62.0	40	37.4	1	4	90	0.00	30.201 
12:05	62.4	62.4	62.4	40	37.8	1	3	90	0.00	30.201 
12:10	62.7	62.7	62.7	38	36.7	1	6	90	0.00	30.201 
12:15	63.1	63.1	63.1	40	38.4	1	4	112	0.00	30.191 
12:20	63.2	63.2	63.2	40	38.5	1	3	90	0.00	30.191 
12:25	63.2	63.2	63.2	39	37.8	1	5	68	0.00	30.191 
12:30	63.4	63.4	63.4	37	36.7	1	4	90	0.00	30.185 
12:35	63.2	63.2	63.2	35	35.1	2	7	90	0.00	30.185 
12:40	63.2	63.2	63.2	34	34.4	2	6	90	0.00	30.185 
12:45	63.2	63.2	63.2	35	35.1	2	6	90	0.00	30.183 
12:50	63.2	63.2	63.2	36	35.8	2	5	90	0.00	30.183 
12:55	63.2	63.2	63.2	34	34.4	2	6	90	0.00	30.183 
13:00	63.4	63.4	63.4	35	35.3	1	5	112	0.00	30.174 
13:05	63.5	63.5	63.5	34	34.6	2	6	90	0.00	30.174 
13:10	63.9	63.9	63.9	33	34.2	1	5	112	0.00	30.174 
13:15	64.0	64.0	64.0	34	35.1	2	5	90	0.00	30.175 
13:20	64.0	64.0	64.0	34	35.1	2	6	90	0.00	30.175 
13:25	64.3	64.3	64.3	34	35.3	1	4	90	0.00	30.175 
13:30	64.7	64.7	64.7	36	37.1	1	6	90	0.00	30.170 
13:35	64.7	64.7	64.7	33	34.9	2	6	68	0.00	30.170 
13:40	64.7	64.7	64.7	35	36.4	1	5	90	0.00	30.170 
13:45	64.7	64.7	64.7	32	34.2	1	6	90	0.00	30.157 
13:50	64.8	64.8	64.8	36	37.2	1	4	112	0.00	30.157 
13:55	64.7	64.7	64.7	32	34.2	2	4	112	0.00	30.157 
14:00	65.0	65.0	65.0	37	38.1	1	4	90	0.00	30.145 
14:05	65.3	65.3	65.3	34	36.2	1	4	112	0.00	30.145 
14:10	65.5	65.5	65.5	34	36.4	2	7	90	0.00	30.145 
14:15	65.5	65.5	65.5	32	34.9	2	4	112	0.00	30.142 
14:20	65.6	65.6	65.6	33	35.7	1	4	270	0.00	30.142 
14:25	65.6	65.6	65.6	31	34.1	2	5	90	0.00	30.142 
14:30	65.6	65.6	65.6	29	32.5	2	4	68	0.00	30.139 
14:35	65.6	65.6	65.6	29	32.5	1	5	90	0.00	30.139 
14:40	65.8	65.8	65.8	31	34.3	1	4	112	0.00	30.139 
14:45	66.0	66.0	66.0	32	35.3	2	5	90	0.00	30.130 
14:50	66.4	66.4	66.4	34	37.2	1	7	90	0.00	30.130 
14:55	66.4	66.4	66.4	31	34.8	2	6	68	0.00	30.130 
15:00	66.6	66.6	66.6	30	34.2	1	3	22	0.00	30.127 
15:05	66.8	66.8	66.8	32	36.0	2	5	112	0.00	30.127 
15:10	67.1	67.1	67.1	29	33.8	1	5	68	0.00	30.127 
15:15	67.3	67.3	67.3	34	38.0	1	3	68	0.00	30.121 
15:20	67.3	67.3	67.3	31	35.6	1	6	112	0.00	30.121 
15:25	67.3	67.3	67.3	29	33.9	1	3	112	0.00	30.121 
15:30	67.3	67.3	67.3	31	35.6	1	5	90	0.00	30.116 
15:35	67.3	67.3	67.3	28	33.1	1	4	112	0.00	30.116 
15:40	67.4	67.4	67.4	29	34.0	1	3	90	0.00	30.116 
15:45	67.6	67.6	67.6	28	33.3	1	4	90	0.00	30.114 
15:50	67.8	67.8	67.8	28	33.5	0	3	90	0.00	30.114 
15:55	68.1	68.1	68.1	32	37.1	0	2	90	0.00	30.114 
16:00	68.3	68.3	68.3	32	37.3	0	1	90	0.00	30.112 
16:05	68.1	68.1	68.1	28	33.8	1	5	90	0.00	30.112 
16:10	67.8	67.8	67.8	27	32.6	1	3	112	0.00	30.112 
16:15	67.4	67.4	67.4	29	34.0	1	5	135	0.00	30.113 
16:20	67.1	67.1	67.1	30	34.6	1	4	90	0.00	30.113 
16:25	66.8	66.8	66.8	30	34.4	1	5	90	0.00	30.113 
16:30	66.8	66.8	66.8	28	32.6	1	3	112	0.00	30.106 
16:35	66.8	66.8	66.8	27	31.7	1	3	112	0.00	30.106 
16:40	66.8	66.8	66.8	29	33.5	1	4	68	0.00	30.106 
16:45	66.9	66.9	66.9	28	32.7	1	4	112	0.00	30.108 
16:50	66.9	66.9	66.9	31	35.3	0	2	112	0.00	30.108 
16:55	66.9	66.9	66.9	32	36.1	0	2	112	0.00	30.108 
17:00	66.9	66.9	66.9	29	33.6	1	6	112	0.00	30.101 
17:05	66.9	66.9	66.9	30	34.5	1	3	112	0.00	30.101 
17:10	66.8	66.8	66.8	31	35.2	1	3	112	0.00	30.101 
17:15	66.6	66.6	66.6	28	32.5	1	4	112	0.00	30.101 
17:20	66.4	66.4	66.4	30	34.0	2	6	112	0.00	30.101 
17:25	66.1	66.1	66.1	29	32.9	1	4	112	0.00	30.101 
17:30	66.1	66.1	66.1	29	32.9	1	6	68	0.00	30.099 
17:35	66.1	66.1	66.1	29	32.9	1	4	112	0.00	30.099 
17:40	66.0	66.0	66.0	31	34.5	1	4	112	0.00	30.099 
17:45	65.8	65.8	65.8	31	34.3	1	4	112	0.00	30.091 
17:50	65.8	65.8	65.8	31	34.3	0	3	112	0.00	30.091 
17:55	65.8	65.8	65.8	30	33.5	1	4	112	0.00	30.091 
18:00	65.6	65.6	65.6	30	33.3	1	4	112	0.00	30.095 
18:05	65.6	65.6	65.6	32	34.9	0	1	112	0.00	30.095 
18:10	65.5	65.5	65.5	31	34.1	1	4	112	0.00	30.095 
18:15	65.3	65.3	65.3	31	33.9	1	4	90	0.00	30.070 
18:20	65.2	65.2	65.2	31	33.8	0	2	90	0.00	30.070 
18:25	65.0	65.0	65.0	32	34.4	1	5	90	0.00	30.070 
18:30	64.7	64.7	64.7	34	35.7	0	1	112	0.00	30.083 
18:35	64.7	64.7	64.7	34	35.7	0	1	112	0.00	30.083 
18:40	64.5	64.5	64.5	36	36.9	0	1	112	0.00	30.083 
18:45	64.3	64.3	64.3	35	36.1	1	3	112	0.00	30.060 
18:50	64.2	64.2	64.2	35	36.0	2	5	112	0.00	30.060 
18:55	64.2	64.2	64.2	35	36.0	1	4	112	0.00	30.060 
19:00	64.0	64.0	64.0	34	35.1	1	3	112	0.00	30.057 
19:05	64.0	64.0	64.0	34	35.1	1	4	112	0.00	30.057 
19:10	64.0	64.0	64.0	35	35.8	0	2	112	0.00	30.057 
19:15	63.9	63.9	63.9	35	35.7	0	2	112	0.00	30.057 
19:20	63.7	63.7	63.7	37	36.9	0	1	112	0.00	30.057 
19:25	63.4	63.4	63.4	37	36.7	0	1	112	0.00	30.057 
19:30	63.2	63.2	63.2	37	36.5	0	0	---	0.00	30.078 
19:35	63.1	63.1	63.1	39	37.7	0	1	112	0.00	30.078 
19:40	62.9	62.9	62.9	39	37.6	0	1	112	0.00	30.078 
19:45	62.7	62.7	62.7	39	37.4	0	1	112	0.00	30.074 
19:50	62.6	62.6	62.6	41	38.6	0	2	112	0.00	30.074 
19:55	62.4	62.4	62.4	40	37.8	2	4	112	0.00	30.074 
20:00	62.3	62.3	62.3	40	37.7	3	6	90	0.00	30.044 
20:05	62.3	62.3	62.3	41	38.3	0	4	90	0.00	30.044 
20:10	62.1	62.1	62.1	41	38.1	0	1	90	0.00	30.044 
20:15	62.1	62.1	62.1	42	38.7	0	1	90	0.00	30.064 
20:20	61.8	61.8	61.8	43	39.1	0	1	90	0.00	30.064 
20:25	61.5	61.5	61.5	43	38.8	0	2	90	0.00	30.064 
20:30	61.2	61.2	61.2	44	39.1	0	1	90	0.00	30.063 
20:35	61.0	61.0	61.0	44	38.9	0	2	90	0.00	30.063 
20:40	60.7	60.7	60.7	44	38.7	0	2	90	0.00	30.063 
20:45	60.5	60.5	60.5	44	38.5	0	1	90	0.00	30.049 
20:50	60.5	60.5	60.5	43	37.9	1	2	90	0.00	30.049 
20:55	60.5	60.5	60.5	43	37.9	0	1	90	0.00	30.049 
21:00	60.5	60.5	60.5	44	38.5	0	0	---	0.00	30.054 
21:05	60.4	60.4	60.4	44	38.4	0	1	90	0.00	30.054 
21:10	60.2	60.2	60.2	44	38.2	0	1	90	0.00	30.054 
21:15	60.1	60.1	60.1	44	38.1	0	0	---	0.00	30.057 
21:20	59.9	59.9	59.9	45	38.5	0	0	---	0.00	30.057 
21:25	59.8	59.8	59.8	46	39.0	0	0	---	0.00	30.057 
21:30	59.5	59.5	59.5	46	38.7	0	0	---	0.00	30.053 
21:35	59.3	59.3	59.3	46	38.5	0	0	---	0.00	30.053 
21:40	59.2	59.2	59.2	46	38.4	0	0	---	0.00	30.053 
21:45	59.0	59.0	59.0	47	38.8	0	0	---	0.00	30.048 
21:50	58.9	58.9	58.9	47	38.7	0	0	---	0.00	30.048 
21:55	58.7	58.7	58.7	48	39.1	0	1	90	0.00	30.048 
22:00	58.7	58.7	58.7	48	39.1	0	1	90	0.00	30.042 
22:05	58.6	58.6	58.6	50	40.0	0	0	---	0.00	30.042 
22:10	58.3	58.3	58.3	50	39.7	0	0	---	0.00	30.042 
22:15	58.0	58.0	58.0	52	40.5	0	0	---	0.00	30.043 
22:20	57.6	57.6	57.6	53	40.6	0	0	---	0.00	30.043 
22:25	57.3	57.3	57.3	53	40.3	0	0	---	0.00	30.043 
22:30	57.0	57.0	57.0	53	40.0	0	0	---	0.00	30.039 
22:35	56.7	56.7	56.7	54	40.2	0	0	---	0.00	30.039 
22:40	56.5	56.5	56.5	54	40.1	0	0	---	0.00	30.039 
22:45	56.3	56.3	56.3	54	39.9	0	0	---	0.00	30.043 
22:50	56.2	56.2	56.2	55	40.2	0	0	---	0.00	30.043 
22:55	56.0	56.0	56.0	56	40.5	0	0	---	0.00	30.043 
23:00	56.0	56.0	56.0	55	40.1	0	0	---	0.00	30.039 
23:05	56.0	56.0	56.0	55	40.1	0	0	---	0.00	30.039 
23:10	56.0	56.0	56.0	55	40.1	0	1	90	0.00	30.039 
23:15	56.2	56.2	56.2	55	40.2	0	0	---	0.00	30.036 
23:20	56.3	56.3	56.3	54	39.9	0	1	90	0.00	30.036 
23:25	56.3	56.3	56.3	54	39.9	0	1	90	0.00	30.036 
23:30	56.5	56.5	56.5	54	40.1	0	1	90	0.00	30.033 
23:35	56.5	56.5	56.5	54	40.1	0	1	90	0.00	30.033 
23:40	56.5	56.5	56.5	54	40.1	0	1	90	0.00	30.033 
23:45	56.5	56.5	56.5	54	40.1	0	1	90	0.00	30.024 
23:50	56.3	56.3	56.3	55	40.3	0	1	90	0.00	30.024 
23:55	56.2	56.2	56.2	55	40.2	0	1	90	0.00	30.024 

CoCoRaHS
IN-AL-39
A2 Web Hosting
Creative Commons License
GoDaddy
search engine by freefind advanced

loaded 2018-11-15 13:58:48 • last modified 2010-11-18 10:43:29
Privacy PolicyDisclaimer
• wx.awcolley.com is powered by PmWiki v.2002016 •
• all content (unless otherwise noted) © 2018 A W Colley